Connexion S'enregistrer

Connexion à votre compte

Identifiant
Mot de passe
Maintenir la connexion active sur ce site

Créer un compte

Pour valider ce formulaire, vous devez remplir tous les champs.
Nom
Identifiant
Mot de passe
Répétez le mot de passe
Adresse e-mail
Répétez l'adresse e-mail

Pour la 3e année consécutive, l'Aéroclub de Savoie ouvre ses portes à la Fête des Sports Aériens 

 

Affiche FSA Aeroclub Savoie

Les 18 et 19 mai prochains, venez découvrir les nombreuses activités aéronautiques qu'il est possible de pratiquer dans le ciel de Savoie.

Outre les stands de nos partenaires, vous pourrez venir découvrir différents types de machines en exposition statique, vous frotter à la simulation en vol sur Mirage 2000 ou ULM pendulaire, ou encore tenter votre chance pour gagner un vol découverte parmi les nombreuses disciplines représentées. Les enfants de tous âges sont bienvenus et sauront apprécier des activités mises en place spécialement pour eux.

Des vols découverte, sur avion et ULM (dont hélicoptère léger), vous seront proposés, à différents tarifs. Jeu concours France Bleu Savoie du 13 au 17 mai, pour gagner votre vol lors du week-end.

Le 19 mai, de 13h30 à environ 18h, venez admirer les démonstrations des différentes disciplines qui vous auront été présentées durant le WE, et bien d'autres  performances. Pour les jeunes enfants, prévoyez des protections auditives!

Pour le détail du programme, c'est ICIEgalement :

              le 18 : présence d'un Norécrin restauré

              le 19 : présence d'un ballon dirigeable 

Renseignements par téléphone ou sur place au club, selon les horaires indiqués dans la rubrique contact.

Entrée gratuite. Interdiction de fumer sur la totalité de la zone de présentation. Buvette et petite restauration (midi uniquement). Programme sujet à modification selon météo et disponibilité des machines.

Nous contacter

 Téléphone : +33 (0)4 79 54 41 81

Coordonnées détaillées et accès : cliquez ici

 
LFLB °C
    Ferienhaus Ostsee
[source: ADDS]
METAR
LFLB 210930Z AUTO VRB03KT 9999 SCT066 BKN090 BKN110 14/06 Q1019 NOSIG =
TAF LFLB 210500Z 2106/2206 VRB02KT CAVOK BECMG 2109/2111 02007KT BECMG 2117/2119 VRB02KT
TAF
TAF LFLB 210500Z 2106/2206 VRB02KT CAVOK BECMG 2109/2111 02007KT BECMG 2117/2119 VRB02KT =
SR / SS: 04:40 / 18:29 UTC (Lever/Coucher du soleil le 2019-04-21)
JSN Boot template designed by JoomlaShine.com